Mac Dill Air Force Base
KMCF : rendu visible

Aérodrome :











RETROUVEZ-NOUS SUR...

 
LOGIN :

S'inscrire | Disclaimer

   EN    FR    IT 

 









Légende :    VFR   VFR Marginal   IFR   IFR Intensif   IFR Très Intensif
Visi : 
Plafond : 
>= 8 km
>= 3000ft
5 à 8 km
1000 à 3000 ft
1500m à 5 km
500 à 1000 ft
800 à 1500m
200 à 500 ft
< 800m
< 200 ft
Symboles :   Orages  Brouillard  Fortes neiges  Fortes précipitations  Vent > 20 kt






- Altitude de l'aérodrome : 14 ft


KMCF - Mac Dill Air Force Base

DERNIER METAR :
  • 182356Z AUTO 33003KT 10SM FEW220 27/23 A2989 RMK AO2 SLP125 T02740228 10317 20274 52010 FZRANO $

METARs EXPIRÉS :
  • 182256Z AUTO 33006KT 10SM CLR 29/23 A2988 RMK AO2 SLP121 T02900227 FZRANO $
  • 182156Z AUTO 30006KT 10SM CLR 30/23 A2987 RMK AO2 SLP118 T02960225 FZRANO $

TAF TAF KMCF
Valide du 18 à 17h jusqu'au 19 à 23h UTC


181700Z 1817/1923 28010KT 9000 -SHRA VCTS SCT030CB QNH2986INS
BECMG 1822/1823 VRB06KT 9999 VCSH SCT040 QNH2983INS
BECMG 1905/1906 VRB06KT 9999 NSW FEW040 QNH2986INS
BECMG 1918/1919 35009KT 9000 -SHRA BKN035 QNH2985INS TX31/1917Z TN23/1912Z
FIR KZMA / Amérique du Nord



MET'MAP, la Météo Aéronautique d'un coup d'oeil ! - Copyright ORBIFLY Décembre 2007 - Disclaimer

ORBIFLY MET'MAP TEAM :

Programmation & Développement : Alexandra Zaïnal
Sur une idée originale de : Baudouin d'Aumeries
Assistance à la programmation : Marc-Olivier Méhu
Soutien technique & logistique : Manuel Goepfert

Contact : metmap@orbifly.com




SOURCES & CREDITS :

   NOAA       Earth
Advisory